Highland, Minnesota
Current Conditions -  °F | °C
As of 5:35 PM on Saturday 25 Oct 2014 (Local Time) from KFKA Reporting Station
Clear Clear  
Wind Chill: 14°   Ceiling: Unl
Heat Index: 14°   Visibility: 10mi
Dew Point: -1°   Wind: 10mph
Humidity: 36%   Direction: 300°WNW
Pressure: 30.04"   Gusts: NA
Location:  43.7165°N, 91.9871°W
Report Text: KFKA 252235Z AUTO 30009KT 10SM CLR 14/M01 A3004 RMK AO2 T01411009
Loading
Personal Weather Stations






























Interactive Weather Map
Tropical Storm Tracking
New forecast layout! Learn more

10-Day Weather Forecast

Advertisements
Track Severe Weather on mobile